Motion Scan — PCNB — position and weather

sailwx.info

Track history (hours):
 
Tides and Currents Weather Stations Pressure Air Temp Water Temp Dewpoint Dewpoint Depression Visibility Wind Speed Wind Dir Waves Ship Positions

Motion Scan

Last reported at 2015-May-17 00:03 UTC. Time now 2015-May-24 23:25 UTC.
Position N 29°21' W 094°42'.

Length 116 m; draft 5.5 m.

Type: Cargo ship. MMSI: 245523000.

Date/timePositionNaut miles runAvg speedWind from/ knotsBaromVisibWave heightAir tempDewpointWater temp
2015-May-17 00:03N 29°21' W 094°42'612.3
2015-May-16 23:33N 29°23' W 094°48'1111.1
2015-May-16 22:33N 29°33' W 094°54'1010.5
2015-May-16 21:34N 29°42' W 094°60'7 6.5
2015-May-16 20:34N 29°44' W 095°07'3 3.2
2015-May-16 19:32N 29°45' W 095°11'0 0.0
2015-May-16 18:32N 29°45' W 095°11'0 0.0
2015-May-16 17:32N 29°45' W 095°11'0 0.0
2015-May-16 16:32N 29°45' W 095°11'0 0.0
2015-May-16 15:32N 29°45' W 095°11'0 0.0
2015-May-16 14:29N 29°45' W 095°11'0 0.0
2015-May-16 13:32N 29°45' W 095°11'0 0.0
2015-May-16 12:32N 29°45' W 095°11'0 0.0
2015-May-16 11:32N 29°45' W 095°11'0 0.0
2015-May-16 10:32N 29°45' W 095°11'0 0.0
2015-May-16 09:32N 29°45' W 095°11'0 0.0
2015-May-16 08:32N 29°45' W 095°11'0 0.0
2015-May-16 07:32N 29°45' W 095°11'0 0.0
2015-May-16 06:32N 29°45' W 095°11'0 0.0
2015-May-16 05:32N 29°45' W 095°11'0 0.0
2015-May-16 04:32N 29°45' W 095°11'0 0.0
2015-May-16 03:32N 29°45' W 095°11'0 0.0
2015-May-16 02:32N 29°45' W 095°11'0 0.0
2015-May-16 01:32N 29°45' W 095°11'0 0.0
2015-May-16 00:32N 29°45' W 095°11'0 0.0
2015-May-15 23:32N 29°45' W 095°11'0 0.0
2015-May-15 22:32N 29°45' W 095°11'0 0.0
2015-May-15 21:32N 29°45' W 095°11'0 0.0
2015-May-15 20:32N 29°45' W 095°11'0 0.0
2015-May-15 19:32N 29°45' W 095°11'0 0.0
2015-May-15 18:32N 29°45' W 095°11'0 0.0
2015-May-15 17:32N 29°45' W 095°11'0 0.0
2015-May-15 16:32N 29°45' W 095°11'0 0.0
2015-May-15 15:32N 29°45' W 095°11'0 0.0
2015-May-15 14:32N 29°45' W 095°11'0 0.0
2015-May-15 13:32N 29°45' W 095°11'0 0.0
2015-May-15 12:32N 29°45' W 095°11'0 0.0
2015-May-15 11:32N 29°45' W 095°11'0 0.0
2015-May-15 10:31N 29°45' W 095°11'0 0.0
2015-May-15 09:32N 29°45' W 095°11'0 0.0
2015-May-15 08:31N 29°45' W 095°11'0 0.0
2015-May-15 07:32N 29°45' W 095°11'0 0.0
2015-May-15 06:32N 29°45' W 095°11'0 0.0
2015-May-15 05:31N 29°45' W 095°11'0 0.0
2015-May-15 04:31N 29°45' W 095°11'0 0.0
2015-May-15 03:28N 29°45' W 095°11'0 0.0
2015-May-15 02:32N 29°45' W 095°11'0 0.0
2015-May-15 01:28N 29°45' W 095°11'0 0.0
2015-May-15 00:26N 29°45' W 095°11'0 0.0
2015-May-14 23:31N 29°45' W 095°11'0 0.0
2015-May-14 22:31N 29°45' W 095°11'0 0.0
2015-May-14 21:28N 29°45' W 095°11'0 0.0
2015-May-14 20:25N 29°45' W 095°11'0 0.0
2015-May-14 19:31N 29°45' W 095°11'0 0.0
2015-May-14 18:31N 29°45' W 095°11'0 0.0
2015-May-14 17:31N 29°45' W 095°11'0 0.0
2015-May-14 16:31N 29°45' W 095°11'0 0.0
2015-May-14 15:33N 29°45' W 095°11'5 4.7
2015-May-14 14:34N 29°46' W 095°05'8 8.4
2015-May-14 13:33N 29°40' W 094°58'1212.2
2015-May-14 12:33N 29°29' W 094°52'1110.7
2015-May-14 11:29N 29°21' W 094°43'  
2015-May-10 23:33N 25°57' W 079°27'1110.4
2015-May-10 22:31N 26°06' W 079°21'1111.6
2015-May-10 21:32N 26°12' W 079°10'  
Track history (hours):
 
Tides and Currents Weather Stations Pressure Air Temp Water Temp Dewpoint Dewpoint Depression Visibility Wind Speed Wind Dir Waves Ship Positions

Motion Scan

Last reported at 2015-May-17 00:03 UTC. Time now 2015-May-24 23:25 UTC.
Position N 29°21' W 094°42'.

Length 116 m; draft 5.5 m.

Type: Cargo ship. MMSI: 245523000.

Date/timePositionNaut miles runAvg speedWind from/ knotsBaromVisibWave heightAir tempDewpointWater temp
2015-May-17 00:03N 29°21' W 094°42'612.3
2015-May-16 23:33N 29°23' W 094°48'1111.1
2015-May-16 22:33N 29°33' W 094°54'1010.5
2015-May-16 21:34N 29°42' W 094°60'7 6.5
2015-May-16 20:34N 29°44' W 095°07'3 3.2
2015-May-16 19:32N 29°45' W 095°11'0 0.0
2015-May-16 18:32N 29°45' W 095°11'0 0.0
2015-May-16 17:32N 29°45' W 095°11'0 0.0
2015-May-16 16:32N 29°45' W 095°11'0 0.0
2015-May-16 15:32N 29°45' W 095°11'0 0.0
2015-May-16 14:29N 29°45' W 095°11'0 0.0
2015-May-16 13:32N 29°45' W 095°11'0 0.0
2015-May-16 12:32N 29°45' W 095°11'0 0.0
2015-May-16 11:32N 29°45' W 095°11'0 0.0
2015-May-16 10:32N 29°45' W 095°11'0 0.0
2015-May-16 09:32N 29°45' W 095°11'0 0.0
2015-May-16 08:32N 29°45' W 095°11'0 0.0
2015-May-16 07:32N 29°45' W 095°11'0 0.0
2015-May-16 06:32N 29°45' W 095°11'0 0.0
2015-May-16 05:32N 29°45' W 095°11'0 0.0
2015-May-16 04:32N 29°45' W 095°11'0 0.0
2015-May-16 03:32N 29°45' W 095°11'0 0.0
2015-May-16 02:32N 29°45' W 095°11'0 0.0
2015-May-16 01:32N 29°45' W 095°11'0 0.0
2015-May-16 00:32N 29°45' W 095°11'0 0.0
2015-May-15 23:32N 29°45' W 095°11'0 0.0
2015-May-15 22:32N 29°45' W 095°11'0 0.0
2015-May-15 21:32N 29°45' W 095°11'0 0.0
2015-May-15 20:32N 29°45' W 095°11'0 0.0
2015-May-15 19:32N 29°45' W 095°11'0 0.0
2015-May-15 18:32N 29°45' W 095°11'0 0.0
2015-May-15 17:32N 29°45' W 095°11'0 0.0
2015-May-15 16:32N 29°45' W 095°11'0 0.0
2015-May-15 15:32N 29°45' W 095°11'0 0.0
2015-May-15 14:32N 29°45' W 095°11'0 0.0
2015-May-15 13:32N 29°45' W 095°11'0 0.0
2015-May-15 12:32N 29°45' W 095°11'0 0.0
2015-May-15 11:32N 29°45' W 095°11'0 0.0
2015-May-15 10:31N 29°45' W 095°11'0 0.0
2015-May-15 09:32N 29°45' W 095°11'0 0.0
2015-May-15 08:31N 29°45' W 095°11'0 0.0
2015-May-15 07:32N 29°45' W 095°11'0 0.0
2015-May-15 06:32N 29°45' W 095°11'0 0.0
2015-May-15 05:31N 29°45' W 095°11'0 0.0
2015-May-15 04:31N 29°45' W 095°11'0 0.0
2015-May-15 03:28N 29°45' W 095°11'0 0.0
2015-May-15 02:32N 29°45' W 095°11'0 0.0
2015-May-15 01:28N 29°45' W 095°11'0 0.0
2015-May-15 00:26N 29°45' W 095°11'0 0.0
2015-May-14 23:31N 29°45' W 095°11'0 0.0
2015-May-14 22:31N 29°45' W 095°11'0 0.0
2015-May-14 21:28N 29°45' W 095°11'0 0.0
2015-May-14 20:25N 29°45' W 095°11'0 0.0
2015-May-14 19:31N 29°45' W 095°11'0 0.0
2015-May-14 18:31N 29°45' W 095°11'0 0.0
2015-May-14 17:31N 29°45' W 095°11'0 0.0
2015-May-14 16:31N 29°45' W 095°11'0 0.0
2015-May-14 15:33N 29°45' W 095°11'5 4.7
2015-May-14 14:34N 29°46' W 095°05'8 8.4
2015-May-14 13:33N 29°40' W 094°58'1212.2
2015-May-14 12:33N 29°29' W 094°52'1110.7
2015-May-14 11:29N 29°21' W 094°43'  
2015-May-10 23:33N 25°57' W 079°27'1110.4
2015-May-10 22:31N 26°06' W 079°21'1111.6
2015-May-10 21:32N 26°12' W 079°10'  

Dump ship's entire track history